Aérodrome :
LOGIN :

S'inscrire | Disclaimer

   EN    FR    IT 

 










Légende :    VFR   VFR Marginal   IFR   IFR Intensif   IFR Très Intensif
Visi : 
Plafond : 
>= 8 km
>= 3000ft
5 à 8 km
1000 à 3000 ft
1500m à 5 km
500 à 1000 ft
800 à 1500m
200 à 500 ft
< 800m
< 200 ft
Symboles :   Orages  Brouillard  Fortes neiges  Fortes précipitations  Vent > 20 kt
SIGMETs :   Divers  Orages  Givrage  Turbulence  Onde Orograph.  Cendres Volcan.







- Altitude de l'aérodrome : 776 ft
- Code IATA : RMS


ETAR - Ramstein Air Base

DERNIER METAR :
  • 232156Z 00000KT 9999 SCT130 13/13 A3008 RMK AO2A VIS 1000 RWY08 VIS 2800 RWY08/26 VIS 2800 RWY09/27 SLP187 T01330133 $

METARs EXPIRÉS :
  • 232056Z 00000KT 9999 BKN120 14/14 A3008 RMK AO2A SLP187 60000 T01430143 51005 $
  • 231956Z 05004KT 9999 FEW080 SCT110 14/14 A3008 RMK AO2A SLP187 T01440144 $
  • 231856Z AUTO 06006KT 9999 SCT080 15/15 A3007 RMK AO2 RAE1758 SLP183 P0000 T01540154 $

TAF AMD TAF ETAR
Valide du 23 à 18h jusqu'au 25 à 00h UTC


231823Z 2318/2424 VRB06KT 9000 -SHRA BKN040 QNH3005INS
TEMPO 2318/2320 9000 -TSRA BKN050CB
BECMG 2406/2407 06009KT 8000 -SHRA BKN020 QNH3003INS
TEMPO 2411/2415 8000 -TSRA BKN040CB
BECMG 2414/2415 VRB06KT 9000 -SHRA BKN035 QNH3003INS TX20/2413Z TN11/2404Z
Pas de NOTAMs connus pour ce terrain.



MET'MAP, la Météo Aéronautique d'un coup d'oeil ! - Copyright ORBIFLY Décembre 2007 - Disclaimer

ORBIFLY MET'MAP TEAM :

Programmation & Développement : Alexandra Zaïnal
Conception & Développement : Baudouin d'Aumeries
Co-Programmation & Développement : Marc-Olivier Méhu
Soutien technique & logistique : Manuel Goepfert

Contact : metmap@orbifly.com




SOURCES & CREDITS :

   NOAA